createdAt,value
2023-05-08T00:00:58.598Z,67.73
2023-05-08T00:03:27.235Z,67.83
2023-05-08T00:05:56.390Z,67.80
2023-05-08T00:08:23.941Z,67.82
2023-05-08T00:10:51.510Z,67.71
2023-05-08T00:13:18.886Z,67.99
2023-05-08T00:15:46.722Z,67.97
2023-05-08T00:18:13.972Z,68.22
2023-05-08T00:20:42.247Z,68.28
2023-05-08T00:23:09.510Z,68.42
2023-05-08T00:25:37.006Z,68.20
2023-05-08T00:28:04.288Z,68.36
2023-05-08T00:30:31.569Z,68.16
2023-05-08T00:32:59.052Z,68.09
2023-05-08T00:35:26.801Z,68.22
2023-05-08T00:37:54.372Z,68.55
2023-05-08T00:40:21.587Z,68.77
2023-05-08T00:42:48.948Z,69.12
2023-05-08T00:45:16.320Z,69.24
2023-05-08T00:47:43.887Z,69.23
2023-05-08T00:50:11.952Z,69.17
2023-05-08T00:52:39.902Z,69.47
2023-05-08T00:55:07.765Z,69.25
2023-05-08T00:57:35.945Z,69.32
2023-05-08T01:00:04.013Z,69.24
2023-05-08T01:02:31.832Z,69.64
2023-05-08T01:04:59.550Z,69.71
2023-05-08T01:07:27.939Z,69.86
2023-05-08T01:09:55.742Z,70.13
2023-05-08T01:12:42.598Z,70.44
2023-05-08T01:15:12.517Z,70.16
2023-05-08T01:17:57.968Z,70.52
2023-05-08T01:20:37.534Z,70.66
2023-05-08T01:23:07.386Z,70.54
2023-05-08T01:25:34.288Z,70.68
2023-05-08T01:28:08.654Z,70.67
2023-05-08T01:30:43.433Z,70.77
2023-05-08T01:33:15.991Z,70.89
2023-05-08T01:35:48.385Z,70.54
2023-05-08T01:38:23.198Z,70.55
2023-05-08T01:40:54.402Z,71.00
2023-05-08T01:43:26.323Z,71.31
2023-05-08T01:45:54.401Z,71.42
2023-05-08T01:48:26.661Z,70.97
2023-05-08T01:50:55.852Z,71.08
2023-05-08T01:53:27.800Z,71.68
2023-05-08T01:55:56.416Z,72.25
2023-05-08T01:58:24.854Z,72.01
2023-05-08T02:00:52.275Z,72.09
2023-05-08T02:03:19.845Z,71.90
2023-05-08T02:05:47.351Z,71.74
2023-05-08T02:08:15.326Z,71.88
2023-05-08T02:10:42.857Z,71.65
2023-05-08T02:13:10.893Z,71.49
2023-05-08T02:15:38.627Z,71.41
2023-05-08T02:18:07.857Z,71.90
2023-05-08T02:20:35.981Z,72.03
2023-05-08T02:23:03.378Z,72.14
2023-05-08T02:25:30.692Z,71.72
2023-05-08T02:27:58.047Z,71.81
2023-05-08T02:30:26.332Z,72.15
2023-05-08T02:32:53.951Z,72.23
2023-05-08T02:35:21.852Z,72.48
2023-05-08T02:37:52.898Z,72.84
2023-05-08T02:40:20.977Z,72.24
2023-05-08T02:42:48.672Z,72.70
2023-05-08T02:45:17.012Z,72.67
2023-05-08T02:47:51.344Z,73.02
2023-05-08T02:50:28.338Z,73.13
2023-05-08T02:52:59.748Z,72.93
2023-05-08T02:55:40.408Z,72.27
2023-05-08T02:58:18.314Z,72.51
2023-05-08T03:00:47.831Z,72.44
2023-05-08T03:03:18.415Z,72.79
2023-05-08T03:05:51.430Z,72.73
2023-05-08T03:08:20.015Z,72.38
2023-05-08T03:10:47.570Z,72.30
2023-05-08T03:13:14.738Z,72.25
2023-05-08T03:15:50.202Z,71.98
2023-05-08T03:18:18.337Z,71.85
2023-05-08T03:20:46.923Z,72.13
2023-05-08T03:23:14.376Z,71.88
2023-05-08T03:25:42.244Z,71.94
2023-05-08T03:28:10.719Z,71.98
2023-05-08T03:30:38.794Z,71.68
2023-05-08T03:33:09.057Z,72.37
2023-05-08T03:35:37.929Z,72.58
2023-05-08T03:38:07.001Z,72.86
2023-05-08T03:40:39.042Z,73.50
2023-05-08T03:43:09.617Z,73.23
2023-05-08T03:45:37.756Z,73.25
2023-05-08T03:48:06.002Z,73.48
2023-05-08T03:50:37.803Z,73.79
2023-05-08T03:53:07.816Z,73.71
2023-05-08T03:55:35.479Z,74.13
2023-05-08T03:58:14.307Z,74.77
2023-05-08T04:00:45.082Z,73.86
2023-05-08T04:03:36.229Z,74.41
2023-05-08T04:06:10.170Z,73.97
2023-05-08T04:08:43.784Z,73.75
2023-05-08T04:11:29.345Z,73.79
2023-05-08T04:14:01.756Z,74.22
2023-05-08T04:16:30.137Z,74.18
2023-05-08T04:19:04.313Z,74.38
2023-05-08T04:21:32.933Z,74.47
2023-05-08T04:24:00.562Z,74.82
2023-05-08T04:26:28.447Z,74.52
2023-05-08T04:28:56.326Z,74.65
2023-05-08T04:31:23.707Z,75.39
2023-05-08T04:33:51.191Z,75.23
2023-05-08T04:36:18.774Z,75.39
2023-05-08T04:38:46.376Z,76.22
2023-05-08T04:41:15.348Z,76.70
2023-05-08T04:43:44.733Z,77.28
2023-05-08T04:46:12.659Z,76.91
2023-05-08T04:48:40.048Z,75.87
2023-05-08T04:51:07.603Z,75.14
2023-05-08T04:53:35.404Z,75.77
2023-05-08T04:56:02.721Z,75.37
2023-05-08T04:58:30.070Z,75.11
2023-05-08T05:00:57.957Z,74.94
2023-05-08T05:03:25.655Z,74.77
2023-05-08T05:05:57.551Z,74.84
2023-05-08T05:08:25.243Z,74.12
2023-05-08T05:10:52.682Z,74.60
2023-05-08T05:13:20.347Z,74.74
2023-05-08T05:15:48.336Z,74.65
2023-05-08T05:18:15.977Z,74.26
2023-05-08T05:20:43.657Z,73.38
2023-05-08T05:23:11.942Z,73.32
2023-05-08T05:25:39.897Z,73.27
2023-05-08T05:28:07.564Z,73.33
2023-05-08T05:30:35.098Z,73.35
2023-05-08T05:33:03.013Z,73.51
2023-05-08T05:35:31.542Z,73.23
2023-05-08T05:37:59.319Z,73.12
2023-05-08T05:40:26.869Z,72.83
2023-05-08T05:42:54.316Z,72.98
2023-05-08T05:45:22.099Z,73.39
2023-05-08T05:47:50.604Z,74.30
2023-05-08T05:50:19.864Z,74.16
2023-05-08T05:52:48.141Z,74.46
2023-05-08T05:55:16.521Z,74.84
2023-05-08T05:57:44.483Z,74.93
2023-05-08T06:00:14.366Z,74.64
2023-05-08T06:02:42.363Z,74.42
2023-05-08T06:05:11.878Z,74.68
2023-05-08T06:07:40.074Z,74.91
2023-05-08T06:10:08.265Z,75.37
2023-05-08T06:12:36.090Z,74.83
2023-05-08T06:15:05.383Z,74.44
2023-05-08T06:17:33.118Z,74.35
2023-05-08T06:20:00.815Z,73.74
2023-05-08T06:22:30.422Z,73.19
2023-05-08T06:24:58.181Z,72.76
2023-05-08T06:27:26.378Z,73.14
2023-05-08T06:29:53.922Z,73.05
2023-05-08T06:32:21.535Z,73.34
2023-05-08T06:34:49.030Z,72.92
2023-05-08T06:37:16.591Z,72.55
2023-05-08T06:39:43.940Z,72.47
2023-05-08T06:42:11.514Z,72.73
2023-05-08T06:44:41.032Z,73.37
2023-05-08T06:47:08.801Z,73.35
2023-05-08T06:49:36.868Z,73.17
2023-05-08T06:52:04.715Z,72.65
2023-05-08T06:54:32.379Z,72.96
2023-05-08T06:56:59.833Z,74.04
2023-05-08T06:59:27.292Z,74.08
2023-05-08T07:01:54.916Z,72.70
2023-05-08T07:04:23.078Z,71.91
2023-05-08T07:06:50.581Z,71.94
2023-05-08T07:09:21.009Z,71.72
2023-05-08T07:11:48.674Z,71.59
2023-05-08T07:14:16.026Z,71.79
2023-05-08T07:16:43.557Z,71.84
2023-05-08T07:19:11.247Z,71.95
2023-05-08T07:21:39.028Z,71.86
2023-05-08T07:24:06.874Z,71.86
2023-05-08T07:26:34.228Z,71.36
2023-05-08T07:29:01.902Z,71.09
2023-05-08T07:31:29.379Z,71.54
2023-05-08T07:33:57.209Z,72.16
2023-05-08T07:36:24.655Z,72.48
2023-05-08T07:38:52.436Z,72.60
2023-05-08T07:41:20.453Z,72.25
2023-05-08T07:43:48.167Z,72.19
2023-05-08T07:46:19.000Z,72.64
2023-05-08T07:48:46.753Z,71.86
2023-05-08T07:51:14.582Z,71.30
2023-05-08T07:53:41.881Z,72.35
2023-05-08T07:56:09.443Z,71.65
2023-05-08T07:58:36.993Z,70.57
2023-05-08T08:01:06.100Z,70.17
2023-05-08T08:03:34.266Z,71.46
2023-05-08T08:06:02.044Z,71.55
2023-05-08T08:08:29.496Z,71.06
2023-05-08T08:10:57.282Z,70.64
2023-05-08T08:13:24.845Z,71.09
2023-05-08T08:15:52.366Z,70.80
2023-05-08T08:18:19.974Z,70.40
2023-05-08T08:20:47.696Z,70.50
2023-05-08T08:23:15.261Z,70.81
2023-05-08T08:25:42.916Z,70.17
2023-05-08T08:28:10.580Z,70.42
2023-05-08T08:30:38.138Z,70.90
2023-05-08T08:33:06.614Z,70.26
2023-05-08T08:35:34.280Z,70.20
2023-05-08T08:38:01.934Z,69.48
2023-05-08T08:40:29.413Z,68.52
2023-05-08T08:42:57.054Z,68.38
2023-05-08T08:45:24.715Z,68.95
2023-05-08T08:47:52.468Z,69.08
2023-05-08T08:50:19.941Z,69.08
2023-05-08T08:52:54.580Z,68.05
2023-05-08T08:55:23.577Z,67.20
2023-05-08T08:57:59.791Z,67.08
2023-05-08T09:00:27.475Z,67.07
2023-05-08T09:02:54.772Z,67.65
2023-05-08T09:05:22.810Z,66.50
2023-05-08T09:07:50.254Z,66.68
2023-05-08T09:10:17.508Z,67.34
2023-05-08T09:12:45.527Z,67.01
2023-05-08T09:15:13.376Z,66.41
2023-05-08T09:17:41.061Z,66.29
2023-05-08T09:20:09.205Z,66.63
2023-05-08T09:22:37.258Z,66.34
2023-05-08T09:25:04.809Z,65.47
2023-05-08T09:27:32.669Z,65.25
2023-05-08T09:30:05.965Z,66.27
2023-05-08T09:32:33.386Z,66.03
2023-05-08T09:35:00.276Z,64.52
2023-05-08T09:37:28.127Z,64.97
2023-05-08T09:39:55.501Z,64.24
2023-05-08T09:42:25.603Z,62.76
2023-05-08T09:44:53.608Z,63.23
2023-05-08T09:47:22.392Z,64.21
2023-05-08T09:50:06.449Z,64.67
2023-05-08T09:52:34.576Z,62.96
2023-05-08T09:55:02.767Z,62.22
2023-05-08T09:57:30.922Z,61.67
2023-05-08T10:00:02.395Z,61.80
2023-05-08T10:02:30.388Z,60.73
2023-05-08T10:04:58.029Z,60.90
2023-05-08T10:07:32.228Z,60.55
2023-05-08T10:10:02.143Z,59.94
2023-05-08T10:12:29.697Z,59.13
2023-05-08T10:14:56.711Z,59.09
2023-05-08T10:17:28.513Z,58.55
2023-05-08T10:19:58.327Z,59.18
2023-05-08T10:22:26.074Z,58.44
2023-05-08T10:24:55.066Z,58.00
2023-05-08T10:27:46.184Z,58.83
2023-05-08T10:30:14.868Z,58.39
2023-05-08T10:32:45.959Z,57.84
2023-05-08T10:35:13.465Z,57.13
2023-05-08T10:37:42.632Z,56.93
2023-05-08T10:40:10.981Z,56.21
2023-05-08T10:42:38.617Z,56.49
2023-05-08T10:45:06.827Z,57.56
2023-05-08T10:47:36.901Z,58.07
2023-05-08T10:50:15.490Z,57.18
2023-05-08T10:52:44.303Z,56.33
2023-05-08T10:55:17.842Z,55.37
2023-05-08T10:58:07.478Z,55.87
2023-05-08T11:00:53.481Z,56.40
2023-05-08T11:03:31.250Z,55.90
2023-05-08T11:05:59.752Z,55.78
2023-05-08T11:08:27.956Z,56.08
2023-05-08T11:11:05.382Z,55.62
2023-05-08T11:13:34.090Z,54.28
2023-05-08T11:16:01.674Z,54.15
2023-05-08T11:18:41.825Z,53.35
2023-05-08T11:21:17.043Z,53.46
2023-05-08T11:23:44.396Z,53.89
2023-05-08T11:26:15.145Z,54.75
2023-05-08T11:28:54.994Z,55.57
2023-05-08T11:31:22.589Z,55.18
2023-05-08T11:33:50.512Z,55.64
2023-05-08T11:36:20.835Z,54.29
2023-05-08T11:39:15.942Z,53.52
2023-05-08T11:41:43.394Z,52.15
2023-05-08T11:44:16.798Z,50.22
2023-05-08T11:46:49.201Z,48.48
2023-05-08T11:49:18.115Z,47.12
2023-05-08T11:51:48.171Z,46.87
2023-05-08T11:54:16.954Z,46.69
2023-05-08T11:56:47.642Z,47.30
2023-05-08T11:59:15.452Z,47.16
2023-05-08T12:01:46.280Z,47.59
2023-05-08T12:04:16.361Z,46.76
2023-05-08T12:06:45.093Z,45.96
2023-05-08T12:09:13.368Z,45.80
2023-05-08T12:11:43.808Z,45.46
2023-05-08T12:14:15.363Z,44.84
2023-05-08T12:16:42.879Z,44.89
2023-05-08T12:19:13.567Z,43.72
2023-05-08T12:21:49.097Z,43.70
2023-05-08T12:24:17.363Z,43.69
2023-05-08T12:26:45.637Z,44.11
2023-05-08T12:29:13.193Z,44.81
2023-05-08T12:31:41.555Z,45.30
2023-05-08T12:34:10.471Z,46.17
2023-05-08T12:36:38.392Z,46.85
2023-05-08T12:39:16.233Z,47.42
2023-05-08T12:41:48.096Z,48.23
2023-05-08T12:44:17.292Z,48.46
2023-05-08T12:46:55.903Z,49.24
2023-05-08T12:49:30.542Z,50.31
2023-05-08T12:52:08.128Z,50.75
2023-05-08T12:54:36.627Z,51.32
2023-05-08T12:57:07.544Z,51.92
2023-05-08T12:59:35.124Z,51.98
2023-05-08T13:02:02.821Z,52.33
2023-05-08T13:04:30.522Z,52.10
2023-05-08T13:06:58.395Z,51.71
2023-05-08T13:09:25.854Z,51.60
2023-05-08T13:11:53.227Z,51.50
2023-05-08T13:14:20.802Z,52.04
2023-05-08T13:16:48.532Z,52.06
2023-05-08T13:19:16.497Z,52.33
2023-05-08T13:21:48.149Z,53.20
2023-05-08T13:24:15.818Z,53.65
2023-05-08T13:26:43.576Z,53.88
2023-05-08T13:29:10.954Z,54.61
2023-05-08T13:31:38.441Z,55.08
2023-05-08T13:34:05.958Z,55.52
2023-05-08T13:36:33.608Z,56.42
2023-05-08T13:39:01.273Z,56.70
2023-05-08T13:41:28.728Z,56.69
2023-05-08T13:43:56.291Z,56.55
2023-05-08T13:46:24.295Z,56.63
2023-05-08T13:48:52.222Z,56.66
2023-05-08T13:51:19.685Z,56.55
2023-05-08T13:53:47.284Z,57.25
2023-05-08T13:56:15.322Z,57.73
2023-05-08T13:58:43.382Z,57.09
2023-05-08T14:01:24.930Z,56.89
2023-05-08T14:03:54.701Z,56.81
2023-05-08T14:06:22.124Z,55.59
2023-05-08T14:08:52.140Z,53.75
2023-05-08T14:11:22.888Z,52.39
2023-05-08T14:13:50.344Z,50.97
2023-05-08T14:16:17.957Z,50.25
2023-05-08T14:18:47.099Z,50.16
2023-05-08T14:21:14.458Z,49.35
2023-05-08T14:23:44.106Z,48.03
2023-05-08T14:26:11.499Z,48.19
2023-05-08T14:28:39.487Z,48.59
2023-05-08T14:31:07.133Z,49.18
2023-05-08T14:33:35.838Z,49.87
2023-05-08T14:36:03.376Z,50.11
2023-05-08T14:38:31.052Z,50.14
2023-05-08T14:40:58.843Z,50.37
2023-05-08T14:43:26.888Z,50.54
2023-05-08T14:45:54.461Z,50.92
2023-05-08T14:48:22.009Z,51.67
2023-05-08T14:50:49.632Z,51.96
2023-05-08T14:53:18.443Z,52.24
2023-05-08T14:55:46.305Z,52.52
2023-05-08T14:58:13.980Z,52.32
2023-05-08T15:00:43.106Z,52.55
2023-05-08T15:03:10.687Z,52.31
2023-05-08T15:05:39.026Z,51.82
2023-05-08T15:08:06.477Z,51.80
2023-05-08T15:10:33.931Z,51.60
2023-05-08T15:13:01.307Z,51.50
2023-05-08T15:15:28.843Z,51.56
2023-05-08T15:17:59.378Z,52.10
2023-05-08T15:20:27.138Z,51.69
2023-05-08T15:22:55.323Z,51.19
2023-05-08T15:25:23.715Z,50.53
2023-05-08T15:27:53.101Z,50.03
2023-05-08T15:30:21.176Z,50.14
2023-05-08T15:32:49.885Z,50.06
2023-05-08T15:35:17.913Z,50.29
2023-05-08T15:37:46.203Z,50.58
2023-05-08T15:40:13.957Z,50.84
2023-05-08T15:42:41.334Z,50.82
2023-05-08T15:45:09.469Z,50.81
2023-05-08T15:47:37.422Z,50.24
2023-05-08T15:50:07.461Z,50.18
2023-05-08T15:52:34.954Z,49.82
2023-05-08T15:55:02.398Z,49.94
2023-05-08T15:57:31.069Z,50.27
2023-05-08T15:59:58.630Z,50.45
2023-05-08T16:02:26.251Z,51.04
2023-05-08T16:04:54.049Z,51.34
2023-05-08T16:07:21.415Z,51.48
2023-05-08T16:09:50.191Z,51.88
2023-05-08T16:12:19.817Z,52.07
2023-05-08T16:14:47.670Z,52.65
2023-05-08T16:17:16.302Z,53.17
2023-05-08T16:19:43.568Z,53.11
2023-05-08T16:22:11.479Z,53.46
2023-05-08T16:24:40.882Z,53.90
2023-05-08T16:27:08.860Z,53.76
2023-05-08T16:29:38.263Z,54.14
2023-05-08T16:32:06.236Z,54.93
2023-05-08T16:34:35.623Z,55.06
2023-05-08T16:37:03.479Z,55.00
2023-05-08T16:39:30.938Z,55.06
2023-05-08T16:41:58.719Z,55.37
2023-05-08T16:44:26.478Z,55.50
2023-05-08T16:46:54.688Z,55.62
2023-05-08T16:49:22.517Z,55.81
2023-05-08T16:51:50.065Z,56.42
2023-05-08T16:54:18.342Z,56.50
2023-05-08T16:56:46.122Z,56.62
2023-05-08T16:59:13.662Z,56.64
2023-05-08T17:01:41.103Z,56.58
2023-05-08T17:04:08.781Z,56.25
2023-05-08T17:06:36.236Z,56.61
2023-05-08T17:09:03.802Z,56.64
2023-05-08T17:11:31.253Z,56.54
2023-05-08T17:13:58.707Z,57.10
2023-05-08T17:16:26.703Z,57.38
2023-05-08T17:18:54.444Z,57.40
2023-05-08T17:21:21.996Z,57.56
2023-05-08T17:23:50.321Z,58.03
2023-05-08T17:26:17.732Z,58.34
2023-05-08T17:28:48.343Z,58.78
2023-05-08T17:31:16.513Z,59.19
2023-05-08T17:33:43.963Z,59.71
2023-05-08T17:36:14.327Z,59.68
2023-05-08T17:38:46.021Z,59.51
2023-05-08T17:41:13.608Z,59.57
2023-05-08T17:43:41.106Z,59.96
2023-05-08T17:46:08.706Z,60.17
2023-05-08T17:48:36.415Z,60.00
2023-05-08T17:51:04.081Z,60.18
2023-05-08T17:53:31.714Z,60.19
2023-05-08T17:55:59.501Z,60.04
2023-05-08T17:58:27.273Z,60.18
2023-05-08T18:00:55.684Z,60.82
2023-05-08T18:03:23.519Z,61.27
2023-05-08T18:05:51.336Z,60.89
2023-05-08T18:08:19.058Z,61.03
2023-05-08T18:10:47.004Z,61.52
2023-05-08T18:13:14.427Z,61.42
2023-05-08T18:15:42.755Z,61.47
2023-05-08T18:18:10.604Z,61.48
2023-05-08T18:20:38.169Z,61.32
2023-05-08T18:23:05.722Z,61.65
2023-05-08T18:25:33.142Z,61.86
2023-05-08T18:28:00.900Z,62.01
2023-05-08T18:30:28.910Z,62.15
2023-05-08T18:32:56.591Z,62.46
2023-05-08T18:35:24.031Z,63.11
2023-05-08T18:37:51.464Z,63.34
2023-05-08T18:40:19.153Z,63.97
2023-05-08T18:42:46.881Z,64.11
2023-05-08T18:45:14.579Z,64.42
2023-05-08T18:47:42.362Z,64.67
2023-05-08T18:50:10.707Z,65.00
2023-05-08T18:52:38.308Z,65.09
2023-05-08T18:55:06.446Z,65.46
2023-05-08T18:57:35.197Z,65.83
2023-05-08T19:00:02.915Z,66.10
2023-05-08T19:02:30.800Z,66.28
2023-05-08T19:04:59.241Z,66.36
2023-05-08T19:07:26.931Z,66.33
2023-05-08T19:09:54.977Z,66.04
2023-05-08T19:12:22.448Z,66.23
2023-05-08T19:14:51.321Z,66.37
2023-05-08T19:17:18.693Z,66.24
2023-05-08T19:19:46.539Z,66.54
2023-05-08T19:22:14.014Z,66.95
2023-05-08T19:24:41.350Z,66.95
2023-05-08T19:27:09.012Z,67.48
2023-05-08T19:29:36.476Z,67.54
2023-05-08T19:32:04.404Z,67.56
2023-05-08T19:34:32.650Z,67.58
2023-05-08T19:37:00.166Z,67.78
2023-05-08T19:39:27.635Z,68.60
2023-05-08T19:41:55.216Z,69.04
2023-05-08T19:44:22.437Z,69.24
2023-05-08T19:46:51.138Z,69.48
2023-05-08T19:49:18.578Z,69.67
2023-05-08T19:51:46.137Z,69.86
2023-05-08T19:54:13.706Z,70.61
2023-05-08T19:56:41.167Z,71.30
2023-05-08T19:59:08.840Z,71.62
2023-05-08T20:01:36.525Z,71.67
2023-05-08T20:04:04.497Z,71.80
2023-05-08T20:06:32.338Z,71.63
2023-05-08T20:08:59.972Z,71.94
2023-05-08T20:11:27.537Z,72.15
2023-05-08T20:13:55.400Z,72.51
2023-05-08T20:16:23.228Z,72.53
2023-05-08T20:18:50.940Z,72.21
2023-05-08T20:21:18.591Z,73.20
2023-05-08T20:23:46.346Z,73.63
2023-05-08T20:26:13.707Z,73.07
2023-05-08T20:28:41.071Z,72.80
2023-05-08T20:31:08.837Z,73.09
2023-05-08T20:33:36.501Z,73.19
2023-05-08T20:36:04.243Z,73.59
2023-05-08T20:38:32.439Z,74.18
2023-05-08T20:41:01.170Z,74.09
2023-05-08T20:43:28.975Z,73.74
2023-05-08T20:45:56.596Z,73.36
2023-05-08T20:48:24.006Z,73.43
2023-05-08T20:50:51.550Z,72.77
2023-05-08T20:53:19.130Z,72.62
2023-05-08T20:55:46.754Z,72.82
2023-05-08T20:58:14.372Z,72.92
2023-05-08T21:00:41.984Z,72.70
2023-05-08T21:03:09.374Z,72.94
2023-05-08T21:05:36.898Z,73.53
2023-05-08T21:08:06.520Z,73.84
2023-05-08T21:10:34.476Z,74.22
2023-05-08T21:13:01.933Z,74.45
2023-05-08T21:15:29.698Z,74.58
2023-05-08T21:18:00.279Z,74.36
2023-05-08T21:20:28.109Z,73.97
2023-05-08T21:22:55.768Z,74.95
2023-05-08T21:25:23.319Z,74.61
2023-05-08T21:27:50.968Z,74.63
2023-05-08T21:30:19.254Z,74.82
2023-05-08T21:32:46.760Z,75.41
2023-05-08T21:35:14.604Z,75.44
2023-05-08T21:37:42.446Z,75.22
2023-05-08T21:40:10.431Z,75.48
2023-05-08T21:42:39.025Z,75.75
2023-05-08T21:45:07.537Z,75.69
2023-05-08T21:47:34.960Z,75.91
2023-05-08T21:50:02.602Z,75.71
2023-05-08T21:52:30.257Z,75.79
2023-05-08T21:54:57.611Z,75.67
2023-05-08T21:57:25.274Z,76.05
2023-05-08T21:59:53.034Z,75.83
2023-05-08T22:02:20.664Z,76.13
2023-05-08T22:04:48.266Z,75.97
2023-05-08T22:07:16.326Z,76.15
2023-05-08T22:09:43.792Z,75.96
2023-05-08T22:12:11.546Z,76.30
2023-05-08T22:14:39.108Z,76.44
2023-05-08T22:17:06.582Z,76.05
2023-05-08T22:19:34.017Z,76.32
2023-05-08T22:22:01.267Z,76.24
2023-05-08T22:24:28.731Z,76.60
2023-05-08T22:26:55.984Z,76.61
2023-05-08T22:29:23.640Z,77.10
2023-05-08T22:31:51.261Z,77.03
2023-05-08T22:34:18.861Z,77.53
2023-05-08T22:36:46.522Z,77.45
2023-05-08T22:39:14.076Z,76.98
2023-05-08T22:41:41.764Z,77.06
2023-05-08T22:44:09.317Z,76.89
2023-05-08T22:46:37.360Z,77.09
2023-05-08T22:49:04.926Z,76.93
2023-05-08T22:51:33.104Z,77.03
2023-05-08T22:54:00.574Z,77.12
2023-05-08T22:56:28.117Z,76.62
2023-05-08T22:58:55.983Z,76.50
2023-05-08T23:01:23.662Z,76.35
2023-05-08T23:03:52.021Z,76.91
2023-05-08T23:06:19.483Z,76.38
2023-05-08T23:08:47.139Z,76.39
2023-05-08T23:11:14.497Z,76.81
2023-05-08T23:13:42.360Z,76.67
2023-05-08T23:16:09.823Z,76.76
2023-05-08T23:18:37.286Z,76.57
2023-05-08T23:21:05.850Z,77.03
2023-05-08T23:23:33.418Z,77.35
2023-05-08T23:26:01.488Z,77.84
2023-05-08T23:28:28.846Z,78.04
2023-05-08T23:30:56.164Z,78.51
2023-05-08T23:33:23.566Z,79.37
2023-05-08T23:35:52.236Z,79.34
2023-05-08T23:38:19.383Z,79.38
2023-05-08T23:40:46.751Z,80.06
2023-05-08T23:43:14.194Z,80.12
2023-05-08T23:45:41.960Z,80.21
2023-05-08T23:48:09.581Z,80.44
2023-05-08T23:50:37.287Z,80.51
2023-05-08T23:53:04.857Z,80.59
2023-05-08T23:55:32.198Z,80.81
2023-05-08T23:57:59.463Z,80.52
